Terminal Aerodrome Forecast
Issued by NWS Pittsburgh, PA

Current Version | Previous Version | Graphics & Text | Print | Product List | Glossary On
Versions: 1 2 3 4 5 6 7 8 9 10 11 12 13 14 15 16 17 18 19 20 21 22 23 24 25 26 27 28 29 30 31
000
FTUS41 KPBZ 202300
TAFPIT
TAF
KPIT 202324Z 2100/2206 18005KT P6SM SCT070
     FM210700 VRB03KT 4SM BR SCT040
     FM210900 VRB03KT 2SM BR SCT002 SCT040
     FM211300 18005KT P6SM SCT040=

USA.gov is the U.S. government's official web portal to all federal, state and local government web resources and services.